Time;durP1;ratioP1;P1;durP2;ratioP2;P2;SDS_P1;SDS_P2;PMS_P1;PMS_P2;Temp;Humidity;BMP_temperature;BMP_pressure;BME280_temperature;BME280_humidity;BME280_pressure;Samples;Min_cycle;Max_cycle;Signal;HPM_P1;HPM_P2
2023/07/26 00:01:26;;;;;;;5.82;2.10;;;;;;;12.90;59.09;99859.56;5037354;28;20052;-49
2023/07/26 00:03:58;;;;;;;6.78;3.30;;;;;;;12.88;57.79;99855.28;5033417;28;20416;-50
2023/07/26 00:06:25;;;;;;;7.22;2.10;;;;;;;12.85;58.45;99851.00;5036533;28;20051;-51
2023/07/26 00:08:52;;;;;;;7.43;2.45;;;;;;;12.80;58.44;99853.66;5033584;28;20067;-50
2023/07/26 00:11:19;;;;;;;5.43;1.70;;;;;;;12.79;58.20;99841.56;5039981;28;20041;-55
2023/07/26 00:13:46;;;;;;;5.25;2.35;;;;;;;12.77;58.70;99843.31;5039018;28;20072;-51
2023/07/26 00:16:12;;;;;;;5.45;2.22;;;;;;;12.74;59.58;99848.56;5037362;28;20040;-55
2023/07/26 00:18:39;;;;;;;5.80;2.15;;;;;;;12.72;58.21;99845.13;5036716;28;20508;-50
2023/07/26 00:21:07;;;;;;;6.57;1.80;;;;;;;12.69;59.05;99845.16;5038081;28;20624;-54
2023/07/26 00:23:33;;;;;;;5.13;1.80;;;;;;;12.67;58.13;99846.94;5035518;28;20341;-56
2023/07/26 00:26:01;;;;;;;4.68;1.88;;;;;;;12.63;59.19;99846.09;5042183;28;20041;-51
2023/07/26 00:28:27;;;;;;;6.38;2.10;;;;;;;12.61;59.02;99847.88;5040086;28;20076;-55
2023/07/26 00:30:54;;;;;;;4.10;1.67;;;;;;;12.57;59.75;99847.06;5022596;28;20084;-53
2023/07/26 00:33:21;;;;;;;6.65;2.22;;;;;;;12.54;58.44;99846.25;5023868;28;20053;-55
2023/07/26 00:35:47;;;;;;;5.22;1.45;;;;;;;12.51;59.34;99847.16;5041186;28;20620;-53
2023/07/26 00:38:14;;;;;;;6.55;1.63;;;;;;;12.48;58.91;99847.19;5024725;28;20065;-50
2023/07/26 00:40:41;;;;;;;4.95;2.03;;;;;;;12.46;58.87;99843.75;5018646;28;20582;-49
2023/07/26 00:43:07;;;;;;;5.60;2.00;;;;;;;12.45;58.88;99852.44;5024975;28;20048;-49
2023/07/26 00:45:38;;;;;;;5.13;2.40;;;;;;;12.45;60.09;99852.44;5028242;28;20055;-51
2023/07/26 00:48:06;;;;;;;7.22;2.47;;;;;;;12.43;59.74;99851.59;5025711;28;20057;-50
2023/07/26 00:50:32;;;;;;;5.18;2.28;;;;;;;12.41;59.45;99850.75;5019954;28;20073;-51
2023/07/26 00:52:59;;;;;;;8.77;2.20;;;;;;;12.38;59.17;99856.84;5024754;28;20138;-53
2023/07/26 00:55:26;;;;;;;6.90;2.67;;;;;;;12.35;59.64;99851.69;5019524;28;20133;-50
2023/07/26 00:57:53;;;;;;;5.43;1.80;;;;;;;12.32;59.79;99847.41;5023878;28;20060;-53
2023/07/26 01:00:20;;;;;;;4.70;1.77;;;;;;;12.32;59.15;99851.72;5024137;28;20052;-53
2023/07/26 01:02:46;;;;;;;6.85;2.42;;;;;;;12.30;59.41;99848.31;5026695;28;20049;-54
2023/07/26 01:05:14;;;;;;;5.47;2.10;;;;;;;12.28;60.25;99856.13;5024332;28;20505;-53
2023/07/26 01:08:20;;;;;;;6.40;2.22;;;;;;;12.21;60.37;99862.25;5022228;28;20060;-52
2023/07/26 01:10:56;;;;;;;5.75;2.03;;;;;;;12.21;60.82;99860.53;5022685;28;20046;-51
2023/07/26 01:15:59;;;;;;;5.13;2.00;;;;;;;12.20;60.14;99853.59;5058337;27;20390;-50
2023/07/26 01:18:26;;;;;;;3.50;2.08;;;;;;;12.18;59.93;99849.31;5020061;28;20045;-51
2023/07/26 01:20:53;;;;;;;5.20;2.13;;;;;;;12.17;59.94;99850.19;5018782;28;20053;-50
2023/07/26 01:23:19;;;;;;;5.55;1.90;;;;;;;12.17;61.16;99858.00;5015128;28;20046;-53
2023/07/26 01:25:46;;;;;;;4.65;2.28;;;;;;;12.17;61.06;99852.81;5017731;28;20050;-51
2023/07/26 01:28:12;;;;;;;5.70;1.63;;;;;;;12.17;60.04;99847.59;5020488;28;20049;-50
2023/07/26 01:30:39;;;;;;;4.57;1.63;;;;;;;12.16;60.42;99853.69;5020455;28;20052;-54
2023/07/26 01:33:07;;;;;;;7.53;2.22;;;;;;;12.14;59.85;99845.91;5014499;28;20483;-50
2023/07/26 01:35:35;;;;;;;5.30;1.52;;;;;;;12.16;60.42;99859.72;5014972;28;20060;-53
2023/07/26 01:38:03;;;;;;;7.25;2.88;;;;;;;12.13;60.83;99856.31;5020030;28;20061;-52
2023/07/26 01:40:30;;;;;;;5.15;2.47;;;;;;;12.14;61.47;99861.50;5017377;28;20054;-51
2023/07/26 01:42:57;;;;;;;6.53;2.58;;;;;;;12.14;60.20;99861.50;5019054;28;20057;-51
2023/07/26 01:45:24;;;;;;;6.80;2.45;;;;;;;12.13;60.18;99861.50;5019252;28;20049;-55
2023/07/26 01:47:52;;;;;;;7.60;3.28;;;;;;;12.16;61.07;99862.31;5013561;28;20460;-56
2023/07/26 01:50:19;;;;;;;6.28;3.20;;;;;;;12.17;60.65;99852.81;5017940;28;20551;-57
2023/07/26 01:52:46;;;;;;;6.72;2.70;;;;;;;12.19;61.46;99851.03;5014198;28;20049;-50
2023/07/26 01:55:13;;;;;;;7.35;2.90;;;;;;;12.20;60.86;99856.19;5021502;28;20103;-56
2023/07/26 01:57:39;;;;;;;5.32;2.60;;;;;;;12.22;60.72;99861.38;5020021;28;20359;-52
2023/07/26 02:00:07;;;;;;;8.15;3.13;;;;;;;12.23;60.81;99852.72;5018262;28;20062;-53
2023/07/26 02:02:34;;;;;;;8.20;2.90;;;;;;;12.26;61.90;99857.88;5015479;28;20082;-50
2023/07/26 02:05:01;;;;;;;8.93;3.05;;;;;;;12.27;60.99;99854.41;5005440;28;20045;-50
2023/07/26 02:07:27;;;;;;;7.82;2.85;;;;;;;12.28;61.65;99856.13;5019266;28;20575;-50
2023/07/26 02:09:54;;;;;;;7.97;3.08;;;;;;;12.30;61.15;99849.16;5019975;28;20049;-55
2023/07/26 02:12:21;;;;;;;7.15;3.33;;;;;;;12.32;61.06;99851.72;5008606;28;20049;-53
2023/07/26 02:14:48;;;;;;;7.55;2.90;;;;;;;12.33;61.60;99849.13;5000797;28;20038;-51
2023/07/26 02:17:14;;;;;;;8.77;2.95;;;;;;;12.35;61.33;99851.69;4999417;28;20045;-51
2023/07/26 02:19:41;;;;;;;6.07;2.45;;;;;;;12.38;61.09;99845.59;4998645;28;20212;-52
2023/07/26 02:22:07;;;;;;;7.85;2.78;;;;;;;12.39;61.76;99842.97;4998631;28;20042;-52
2023/07/26 02:24:34;;;;;;;7.50;2.67;;;;;;;12.41;61.48;99840.38;4994912;28;20077;-54
2023/07/26 02:27:01;;;;;;;8.15;3.42;;;;;;;12.42;61.78;99835.16;4988276;28;20095;-51
2023/07/26 02:29:28;;;;;;;6.40;3.35;;;;;;;12.44;61.46;99832.53;4987349;28;20449;-53
2023/07/26 02:31:54;;;;;;;6.90;3.08;;;;;;;12.45;61.83;99831.66;4984348;28;20042;-51
2023/07/26 02:34:21;;;;;;;6.43;2.95;;;;;;;12.45;61.61;99834.25;4985958;28;20050;-53
2023/07/26 02:36:48;;;;;;;7.53;3.13;;;;;;;12.45;62.57;99826.47;4985811;28;20050;-55
2023/07/26 02:39:14;;;;;;;7.05;3.38;;;;;;;12.45;62.10;99816.94;4982127;28;20050;-51
2023/07/26 02:41:41;;;;;;;7.57;3.30;;;;;;;12.45;62.54;99822.13;4983424;28;20050;-52
2023/07/26 02:44:07;;;;;;;7.22;2.72;;;;;;;12.46;61.63;99820.38;4983309;28;20603;-53
2023/07/26 02:46:34;;;;;;;6.30;2.58;;;;;;;12.45;61.90;99810.88;4981947;28;20101;-53
2023/07/26 02:49:01;;;;;;;8.02;3.17;;;;;;;12.45;62.79;99808.28;4987354;28;20054;-50
2023/07/26 02:51:28;;;;;;;7.43;3.03;;;;;;;12.44;61.75;99812.63;4985930;28;20132;-51
2023/07/26 02:53:54;;;;;;;10.02;3.55;;;;;;;12.43;62.08;99807.44;4982422;28;20057;-50
2023/07/26 02:56:21;;;;;;;9.50;3.67;;;;;;;12.42;62.40;99805.72;4984174;28;20591;-50
2023/07/26 02:58:47;;;;;;;8.23;3.10;;;;;;;12.43;62.16;99804.84;4986472;28;20050;-50
2023/07/26 03:01:14;;;;;;;13.05;3.10;;;;;;;12.44;62.56;99812.63;4982080;28;20054;-56
2023/07/26 03:03:42;;;;;;;9.80;3.25;;;;;;;12.44;63.36;99809.16;4982854;28;20054;-55
2023/07/26 03:06:09;;;;;;;9.60;3.05;;;;;;;12.44;62.59;99809.16;4981943;28;20494;-49
2023/07/26 03:08:36;;;;;;;8.18;3.15;;;;;;;12.44;62.71;99804.84;4982561;28;20043;-53
2023/07/26 03:11:02;;;;;;;6.30;2.28;;;;;;;12.42;63.32;99801.38;4982858;28;20042;-53
2023/07/26 03:13:29;;;;;;;4.68;2.00;;;;;;;12.41;63.02;99804.00;4987716;28;20046;-50
2023/07/26 03:15:56;;;;;;;12.25;2.90;;;;;;;12.38;63.47;99799.72;4979966;28;20057;-50
2023/07/26 03:18:23;;;;;;;8.13;3.00;;;;;;;12.37;64.15;99797.13;4985565;28;20061;-56
2023/07/26 03:20:50;;;;;;;7.75;3.05;;;;;;;12.34;63.55;99804.06;4982513;28;20054;-52
2023/07/26 03:23:16;;;;;;;7.30;3.10;;;;;;;12.34;63.09;99798.88;4982094;28;20050;-51
2023/07/26 03:25:43;;;;;;;8.25;3.38;;;;;;;12.32;63.87;99800.66;4983293;28;20058;-54
2023/07/26 03:28:10;;;;;;;7.95;3.05;;;;;;;12.31;64.17;99798.94;4980844;28;20050;-50
2023/07/26 03:30:36;;;;;;;7.78;3.00;;;;;;;12.31;64.58;99793.75;4979916;28;20046;-54
2023/07/26 03:33:03;;;;;;;8.93;3.20;;;;;;;12.31;64.55;99796.34;4980689;28;20046;-55
2023/07/26 03:35:30;;;;;;;7.53;2.85;;;;;;;12.32;64.28;99800.66;4983096;28;20477;-57
2023/07/26 03:37:57;;;;;;;6.80;2.35;;;;;;;12.33;64.67;99797.19;4981847;28;20049;-54
2023/07/26 03:40:23;;;;;;;6.88;2.53;;;;;;;12.34;64.63;99798.88;4982114;28;20046;-51
2023/07/26 03:42:50;;;;;;;6.97;2.97;;;;;;;12.34;63.91;99801.47;4984983;28;20054;-52
2023/07/26 03:45:16;;;;;;;7.75;3.35;;;;;;;12.34;65.10;99809.28;4980232;28;20537;-54
2023/07/26 03:47:43;;;;;;;7.30;2.88;;;;;;;12.34;64.42;99804.06;4981020;28;20081;-53
2023/07/26 03:50:10;;;;;;;7.22;2.63;;;;;;;12.34;65.40;99801.47;4978190;28;20134;-50
2023/07/26 03:52:37;;;;;;;7.63;4.03;;;;;;;12.34;65.02;99814.47;4984976;28;20046;-51
2023/07/26 03:55:04;;;;;;;7.22;3.38;;;;;;;12.33;64.16;99806.72;4985280;28;20050;-54
2023/07/26 03:57:31;;;;;;;7.55;2.40;;;;;;;12.31;64.30;99804.16;4983618;28;20046;-53
2023/07/26 03:59:58;;;;;;;6.70;2.70;;;;;;;12.30;64.65;99811.97;4965409;28;20042;-54
2023/07/26 04:02:24;;;;;;;8.35;2.67;;;;;;;12.29;65.41;99808.50;4976878;28;20061;-56
2023/07/26 04:04:51;;;;;;;8.10;3.35;;;;;;;12.27;65.16;99802.47;4983460;28;20069;-51
2023/07/26 04:07:18;;;;;;;7.60;3.80;;;;;;;12.25;65.64;99808.53;4985139;28;20116;-49
2023/07/26 04:09:44;;;;;;;8.88;3.42;;;;;;;12.20;64.69;99806.03;4984772;28;20054;-50
2023/07/26 04:12:11;;;;;;;6.10;2.55;;;;;;;12.17;65.56;99806.06;4984404;28;20061;-54
2023/07/26 04:14:38;;;;;;;7.90;3.33;;;;;;;12.13;64.33;99804.38;4983801;28;20046;-56
2023/07/26 04:17:04;;;;;;;7.45;2.60;;;;;;;12.11;65.80;99814.78;4984189;28;20050;-48
2023/07/26 04:19:31;;;;;;;8.68;3.30;;;;;;;12.07;64.60;99824.38;4982198;28;20411;-51
2023/07/26 04:21:58;;;;;;;8.40;2.95;;;;;;;12.03;65.70;99820.03;4983513;28;20054;-54
2023/07/26 04:24:24;;;;;;;7.50;2.67;;;;;;;12.00;65.62;99814.03;4985327;28;20077;-53
2023/07/26 04:26:52;;;;;;;7.05;2.28;;;;;;;11.97;65.55;99827.91;4983583;28;20133;-51
2023/07/26 04:29:19;;;;;;;5.68;2.15;;;;;;;11.93;65.84;99819.28;4984083;28;20117;-52
2023/07/26 04:31:46;;;;;;;7.88;2.90;;;;;;;11.91;64.76;99825.38;4983418;28;20038;-53
2023/07/26 04:34:14;;;;;;;6.00;3.00;;;;;;;11.88;66.07;99828.00;4980487;28;20051;-57
2023/07/26 04:36:41;;;;;;;7.07;2.40;;;;;;;11.87;65.34;99828.88;4981206;28;20053;-55
2023/07/26 04:39:07;;;;;;;7.32;3.00;;;;;;;11.85;64.92;99835.84;4982669;28;20053;-51
2023/07/26 04:41:34;;;;;;;6.90;2.55;;;;;;;11.82;65.10;99832.41;4983545;28;20124;-48
2023/07/26 04:44:01;;;;;;;6.32;2.55;;;;;;;11.81;64.95;99830.69;4983086;28;20069;-55
2023/07/26 04:46:28;;;;;;;7.43;3.28;;;;;;;11.81;65.78;99835.00;4982651;28;20369;-54
2023/07/26 04:48:54;;;;;;;6.05;2.63;;;;;;;11.81;66.10;99830.69;4978648;28;20089;-52
2023/07/26 04:51:23;;;;;;;7.38;2.80;;;;;;;11.81;64.93;99830.69;4980531;28;20046;-50
2023/07/26 04:53:50;;;;;;;5.93;2.72;;;;;;;11.81;66.39;99835.88;4982091;28;20050;-54
2023/07/26 04:56:17;;;;;;;6.63;2.92;;;;;;;11.81;66.10;99835.88;4984243;28;20060;-52
2023/07/26 04:58:44;;;;;;;7.20;2.40;;;;;;;11.80;65.47;99828.09;4982442;28;20042;-55
2023/07/26 05:01:10;;;;;;;11.20;2.90;;;;;;;11.83;65.92;99839.28;4981745;28;20061;-57
2023/07/26 05:03:38;;;;;;;5.50;2.55;;;;;;;11.86;65.97;99840.16;4985490;28;20085;-53
2023/07/26 05:06:05;;;;;;;7.63;2.60;;;;;;;11.87;65.99;99839.28;4981445;28;20042;-47
2023/07/26 05:08:33;;;;;;;5.30;2.45;;;;;;;11.91;65.47;99841.81;4978126;28;20057;-51
2023/07/26 05:11:00;;;;;;;8.50;2.30;;;;;;;11.97;66.21;99840.88;4981852;28;20065;-53
2023/07/26 05:13:27;;;;;;;5.97;2.42;;;;;;;12.02;65.78;99831.31;4980275;28;20056;-48
2023/07/26 05:15:54;;;;;;;6.43;2.35;;;;;;;12.11;66.50;99834.69;4983898;28;20172;-51
2023/07/26 05:18:20;;;;;;;5.72;2.03;;;;;;;12.21;66.46;99844.97;4984354;28;20061;-52
2023/07/26 05:20:51;;;;;;;7.43;3.00;;;;;;;12.31;67.17;99845.69;4984376;28;20141;-52
2023/07/26 05:23:19;;;;;;;9.05;3.35;;;;;;;12.44;67.11;99850.72;4984746;28;20054;-51
2023/07/26 05:25:45;;;;;;;7.25;3.03;;;;;;;12.55;66.48;99833.25;4983003;28;20088;-50
2023/07/26 05:28:12;;;;;;;7.53;2.85;;;;;;;12.66;66.61;99840.03;4982050;28;20537;-51
2023/07/26 05:30:39;;;;;;;6.30;2.58;;;;;;;12.77;67.17;99837.28;4980452;28;20050;-53
2023/07/26 05:33:07;;;;;;;5.93;2.45;;;;;;;12.87;66.50;99836.22;4982062;28;20718;-54
2023/07/26 05:35:34;;;;;;;5.10;2.22;;;;;;;12.98;67.26;99836.06;4982870;28;20494;-53
2023/07/26 05:38:02;;;;;;;5.63;2.47;;;;;;;13.09;66.81;99839.34;4984600;28;20049;-52
2023/07/26 05:40:28;;;;;;;8.90;2.28;;;;;;;13.20;66.81;99840.91;4978967;28;20050;-54
2023/07/26 05:42:55;;;;;;;5.07;1.90;;;;;;;13.30;67.26;99842.47;4986435;28;20151;-52
2023/07/26 05:45:25;;;;;;;4.40;2.08;;;;;;;13.45;67.10;99845.69;4981238;28;20155;-48
2023/07/26 05:47:52;;;;;;;4.90;1.90;;;;;;;13.58;66.36;99842.00;4983909;28;20051;-53
2023/07/26 05:50:19;;;;;;;6.68;2.38;;;;;;;13.73;66.63;99840.00;4984302;28;20271;-53
2023/07/26 05:52:50;;;;;;;6.43;2.33;;;;;;;13.88;66.83;99844.91;4984039;28;20046;-50
2023/07/26 05:55:17;;;;;;;4.13;2.05;;;;;;;14.00;66.58;99842.94;4983972;28;20047;-52
2023/07/26 05:57:43;;;;;;;6.03;2.28;;;;;;;14.08;65.75;99846.25;4980703;28;20053;-52
2023/07/26 06:00:13;;;;;;;7.72;2.38;;;;;;;14.18;66.00;99841.69;4982476;28;20069;-50
2023/07/26 06:02:40;;;;;;;9.73;3.28;;;;;;;14.25;65.47;99843.28;4986675;28;20720;-52
2023/07/26 06:05:07;;;;;;;8.73;1.95;;;;;;;14.30;65.52;99850.16;4988288;28;20073;-52
2023/07/26 06:07:33;;;;;;;5.25;1.75;;;;;;;14.31;65.05;99857.94;4987320;28;20050;-54
2023/07/26 06:10:00;;;;;;;5.30;1.80;;;;;;;14.31;64.22;99851.84;4987882;28;20061;-52
2023/07/26 06:12:27;;;;;;;5.20;1.60;;;;;;;14.32;65.20;99857.03;4986570;28;20078;-51
2023/07/26 06:14:54;;;;;;;4.72;1.98;;;;;;;14.37;64.74;99857.81;4987309;28;20058;-55
2023/07/26 06:17:20;;;;;;;4.88;2.10;;;;;;;14.42;64.48;99859.47;4984789;28;20077;-52
2023/07/26 06:19:48;;;;;;;4.90;2.15;;;;;;;14.48;64.74;99859.31;4987913;28;20042;-52
2023/07/26 06:22:14;;;;;;;5.15;1.95;;;;;;;14.62;64.95;99865.06;4989727;28;20141;-51
2023/07/26 06:24:41;;;;;;;5.05;2.22;;;;;;;14.80;65.04;99859.50;4988430;28;20387;-52
2023/07/26 06:27:08;;;;;;;5.32;2.60;;;;;;;14.99;65.23;99854.72;4988464;28;20065;-52
2023/07/26 06:29:36;;;;;;;4.93;1.90;;;;;;;15.19;64.91;99856.00;4986524;28;20565;-51
2023/07/26 06:32:04;;;;;;;5.75;2.42;;;;;;;15.38;64.57;99851.16;4987305;28;20132;-52
2023/07/26 06:34:30;;;;;;;4.53;2.35;;;;;;;15.59;64.40;99854.09;4986749;28;20057;-53
2023/07/26 06:36:58;;;;;;;4.78;1.88;;;;;;;15.80;64.48;99848.28;4988137;28;20039;-53
2023/07/26 06:39:26;;;;;;;4.90;1.77;;;;;;;16.04;64.05;99853.75;4981182;28;20055;-51
2023/07/26 06:41:53;;;;;;;5.00;2.08;;;;;;;16.29;63.94;99850.44;4987058;28;20054;-53
2023/07/26 06:44:20;;;;;;;4.50;1.60;;;;;;;16.53;63.35;99852.34;4978677;28;20050;-50
2023/07/26 06:46:47;;;;;;;4.05;1.50;;;;;;;16.78;62.97;99851.56;4984935;28;20042;-52
2023/07/26 06:49:13;;;;;;;4.93;1.77;;;;;;;17.00;62.23;99840.41;4987346;28;20042;-51
2023/07/26 06:51:40;;;;;;;4.25;1.58;;;;;;;17.23;62.51;99841.44;4987434;28;20158;-52
2023/07/26 06:54:07;;;;;;;4.30;1.80;;;;;;;17.45;61.62;99838.94;4985199;28;20497;-51
2023/07/26 06:56:34;;;;;;;5.60;2.28;;;;;;;17.71;61.91;99843.28;4987448;28;20046;-54
2023/07/26 06:59:01;;;;;;;7.03;2.17;;;;;;;17.96;61.38;99847.59;4987461;28;20050;-51
2023/07/26 07:01:28;;;;;;;5.15;1.50;;;;;;;18.19;60.72;99843.31;4985793;28;20050;-52
2023/07/26 07:03:55;;;;;;;4.13;1.63;;;;;;;18.42;60.84;99838.09;4984507;28;20057;-51
2023/07/26 07:06:38;;;;;;;3.50;1.35;;;;;;;18.71;59.58;99850.06;4986779;28;20070;-53
2023/07/26 07:09:05;;;;;;;3.70;1.67;;;;;;;18.96;59.04;99854.31;4984279;28;20046;-51
2023/07/26 07:11:31;;;;;;;3.28;1.50;;;;;;;19.25;59.08;99860.16;4983516;28;20134;-51
2023/07/26 07:13:59;;;;;;;3.85;1.38;;;;;;;19.51;58.35;99847.69;4985669;28;20406;-54
2023/07/26 07:16:25;;;;;;;4.30;1.70;;;;;;;19.72;57.47;99847.66;4984527;28;20057;-49
2023/07/26 07:18:52;;;;;;;4.03;2.00;;;;;;;19.94;57.18;99851.97;4984573;28;20109;-49
2023/07/26 07:21:20;;;;;;;4.32;2.20;;;;;;;20.14;56.35;99839.72;4986819;28;20058;-50
2023/07/26 07:23:51;;;;;;;4.57;1.70;;;;;;;20.34;55.92;99843.19;4987376;28;20049;-51
2023/07/26 07:26:17;;;;;;;3.58;2.03;;;;;;;20.55;55.63;99852.72;4984178;28;20042;-53
2023/07/26 07:28:44;;;;;;;5.38;1.58;;;;;;;20.77;55.06;99841.13;4982540;28;20046;-51
2023/07/26 07:31:11;;;;;;;4.38;2.22;;;;;;;21.02;55.22;99845.22;4980082;28;20054;-52
2023/07/26 07:33:38;;;;;;;6.18;1.73;;;;;;;21.23;54.09;99847.69;4980956;28;20065;-52
2023/07/26 07:36:06;;;;;;;5.28;2.05;;;;;;;21.43;53.88;99843.19;4978784;28;20050;-53
2023/07/26 07:38:33;;;;;;;4.05;1.75;;;;;;;21.68;53.94;99852.44;4980560;28;20077;-53
2023/07/26 07:41:00;;;;;;;4.95;1.60;;;;;;;21.89;52.69;99847.03;4981286;28;20125;-53
2023/07/26 07:43:27;;;;;;;4.07;1.92;;;;;;;22.05;52.04;99850.53;4982273;28;20553;-53
2023/07/26 07:45:53;;;;;;;5.18;1.80;;;;;;;22.10;52.29;99852.91;4984813;28;20484;-52
2023/07/26 07:48:20;;;;;;;3.53;1.65;;;;;;;22.12;51.69;99850.19;4984638;28;20655;-50
2023/07/26 07:50:54;;;;;;;3.65;1.33;;;;;;;22.11;51.60;99856.38;4984264;28;20053;-52
2023/07/26 07:53:20;;;;;;;7.55;1.90;;;;;;;22.20;50.90;99855.91;4980371;28;20046;-51
2023/07/26 07:55:47;;;;;;;4.75;1.83;;;;;;;22.36;50.58;99855.06;4984927;28;20499;-49
2023/07/26 07:58:14;;;;;;;2.72;1.45;;;;;;;22.57;50.98;99851.25;4984623;28;20065;-50
2023/07/26 08:00:40;;;;;;;4.55;2.13;;;;;;;22.80;50.31;99862.28;4981096;28;20043;-55
2023/07/26 08:03:07;;;;;;;3.88;1.35;;;;;;;22.82;50.17;99855.13;4985356;28;20046;-49
2023/07/26 08:05:35;;;;;;;3.80;1.27;;;;;;;22.86;49.51;99845.22;4983983;28;20133;-53
2023/07/26 08:08:02;;;;;;;4.75;1.70;;;;;;;23.08;50.33;99844.84;4981419;28;20758;-55
2023/07/26 08:10:28;;;;;;;3.05;1.77;;;;;;;23.42;50.12;99854.38;4984304;28;20129;-51
2023/07/26 08:12:55;;;;;;;4.40;1.58;;;;;;;23.72;49.48;99848.19;4984221;28;20069;-51
2023/07/26 08:15:22;;;;;;;5.18;1.17;;;;;;;23.99;48.40;99850.06;4982194;28;20054;-53
2023/07/26 08:17:48;;;;;;;4.00;1.92;;;;;;;24.21;48.12;99854.06;4983332;28;20058;-53
2023/07/26 08:20:15;;;;;;;4.70;1.67;;;;;;;24.36;47.52;99858.38;4985887;28;20069;-52
2023/07/26 08:22:42;;;;;;;4.03;1.50;;;;;;;24.39;47.21;99852.03;4980393;28;20064;-54
2023/07/26 08:25:09;;;;;;;6.03;2.35;;;;;;;24.44;47.55;99855.22;4985620;28;20069;-54
2023/07/26 08:27:36;;;;;;;5.13;1.60;;;;;;;24.50;47.11;99856.63;4984611;28;20049;-52
2023/07/26 08:30:03;;;;;;;6.55;1.77;;;;;;;24.52;47.02;99846.78;4983447;28;20053;-53
2023/07/26 08:32:30;;;;;;;4.97;1.77;;;;;;;24.61;46.78;99850.63;4984070;28;20042;-51
2023/07/26 08:34:57;;;;;;;4.65;1.45;;;;;;;24.62;46.12;99845.22;4981303;28;20057;-51
2023/07/26 08:37:23;;;;;;;4.22;1.60;;;;;;;24.68;46.66;99849.28;4981933;28;20058;-50
2023/07/26 08:39:50;;;;;;;3.58;1.67;;;;;;;24.77;46.21;99850.47;4979874;28;20058;-50
2023/07/26 08:42:17;;;;;;;3.47;1.90;;;;;;;24.94;46.40;99856.47;4985247;28;20046;-52
2023/07/26 08:44:47;;;;;;;3.95;2.03;;;;;;;25.10;45.74;99851.00;4984893;28;20410;-52
2023/07/26 08:47:14;;;;;;;3.42;1.27;;;;;;;25.29;45.93;99845.31;4984489;28;20052;-53
2023/07/26 08:49:42;;;;;;;6.55;1.75;;;;;;;25.38;45.01;99844.69;4981865;28;20047;-55
2023/07/26 08:52:09;;;;;;;5.13;1.40;;;;;;;25.48;45.40;99838.75;4979141;28;20128;-51
2023/07/26 08:54:36;;;;;;;4.72;2.58;;;;;;;25.58;44.75;99839.84;4980554;28;20057;-50
2023/07/26 08:57:03;;;;;;;5.15;1.60;;;;;;;25.78;44.79;99834.94;4983319;28;20046;-50
2023/07/26 08:59:30;;;;;;;3.55;1.77;;;;;;;26.00;44.33;99844.06;4979888;28;20054;-50
2023/07/26 09:01:58;;;;;;;4.88;1.77;;;;;;;26.08;43.62;99839.03;4983817;28;20141;-53
2023/07/26 09:04:30;;;;;;;6.50;1.80;;;;;;;26.22;43.51;99842.50;4979291;28;20057;-52
2023/07/26 09:07:05;;;;;;;3.67;1.52;;;;;;;26.30;42.98;99842.81;4978454;28;20482;-51
2023/07/26 09:09:33;;;;;;;4.57;2.45;;;;;;;26.28;43.26;99834.13;4979443;28;20065;-53
2023/07/26 09:12:01;;;;;;;3.42;1.30;;;;;;;26.29;42.72;99835.81;4977916;28;20053;-52
2023/07/26 09:14:29;;;;;;;4.72;1.73;;;;;;;26.34;42.33;99825.69;4978431;28;20158;-51
2023/07/26 09:16:58;;;;;;;2.95;1.33;;;;;;;26.42;42.60;99831.31;4976958;28;20047;-51
2023/07/26 09:22:08;;;;;;;4.55;1.90;;;;;;;26.67;41.37;99828.63;5032532;28;20404;-51
2023/07/26 09:24:39;;;;;;;6.95;1.48;;;;;;;26.76;42.04;99835.94;4999345;28;20050;-51
2023/07/26 09:29:54;;;;;;;3.55;1.98;;;;;;;27.07;41.13;99819.50;5007633;27;20395;-55
2023/07/26 09:32:29;;;;;;;3.38;2.08;;;;;;;27.07;40.91;99824.81;4998007;28;20046;-54
2023/07/26 09:34:59;;;;;;;3.72;2.05;;;;;;;27.06;41.19;99821.31;4997054;28;20072;-55
2023/07/26 09:37:27;;;;;;;5.38;1.48;;;;;;;27.13;41.63;99821.72;4989004;28;20077;-51
2023/07/26 09:39:53;;;;;;;4.45;2.97;;;;;;;27.17;41.74;99817.84;5016953;28;20407;-50
2023/07/26 09:42:20;;;;;;;3.17;1.63;;;;;;;27.27;40.84;99814.47;5002390;28;20056;-51
2023/07/26 09:44:56;;;;;;;4.82;2.30;;;;;;;27.38;40.89;99817.16;5001434;28;20076;-53
2023/07/26 09:47:35;;;;;;;3.53;1.55;;;;;;;27.54;39.89;99813.28;4999334;28;20085;-52
2023/07/26 09:50:06;;;;;;;4.95;1.60;;;;;;;27.58;39.83;99812.94;5003746;28;20050;-53
2023/07/26 09:52:37;;;;;;;3.85;1.65;;;;;;;27.73;40.74;99811.88;5000800;28;20490;-51
2023/07/26 09:55:05;;;;;;;3.65;1.83;;;;;;;27.77;40.65;99802.69;4999181;28;20629;-53
2023/07/26 09:57:37;;;;;;;3.78;1.80;;;;;;;27.85;39.21;99797.59;5000771;28;20482;-51
2023/07/26 10:00:06;;;;;;;4.22;1.98;;;;;;;27.91;40.01;99799.78;5001507;28;20077;-52
2023/07/26 10:02:35;;;;;;;3.03;1.92;;;;;;;27.94;39.34;99799.53;4996547;28;20065;-53
2023/07/26 10:05:04;;;;;;;3.60;1.58;;;;;;;28.06;38.99;99796.84;4998284;28;20064;-55
2023/07/26 10:07:31;;;;;;;2.80;1.35;;;;;;;28.13;38.50;99797.19;5001532;28;20560;-52
2023/07/26 10:10:00;;;;;;;3.53;1.75;;;;;;;28.18;38.83;99801.19;4999405;28;20081;-53
2023/07/26 10:12:29;;;;;;;2.88;1.42;;;;;;;28.23;37.64;99798.97;4998530;28;20133;-49
2023/07/26 10:14:56;;;;;;;5.45;1.98;;;;;;;28.29;38.45;99796.81;4999345;28;20042;-50
2023/07/26 10:17:26;;;;;;;3.20;1.85;;;;;;;28.36;37.39;99798.00;4999190;28;20046;-54
2023/07/26 10:19:55;;;;;;;4.20;2.05;;;;;;;28.44;37.85;99784.06;4998108;28;20060;-52
2023/07/26 10:22:23;;;;;;;4.78;2.25;;;;;;;28.41;37.40;99790.50;4998785;28;20137;-55
2023/07/26 10:24:50;;;;;;;3.67;1.75;;;;;;;28.40;37.73;99790.63;4999884;28;20081;-54
2023/07/26 10:27:16;;;;;;;5.03;2.40;;;;;;;28.42;38.28;99786.00;4996471;28;20054;-54
2023/07/26 10:29:44;;;;;;;3.08;1.80;;;;;;;28.45;38.23;99775.94;4996293;28;20561;-56
2023/07/26 10:32:11;;;;;;;107.07;19.23;;;;;;;28.55;38.69;99786.69;4998611;28;20693;-53
2023/07/26 10:34:39;;;;;;;16.10;4.55;;;;;;;28.61;36.96;99780.00;4998443;28;20418;-58
2023/07/26 10:37:15;;;;;;;5.55;1.75;;;;;;;28.53;36.34;99772.63;4997885;28;20061;-53
2023/07/26 10:39:42;;;;;;;4.55;2.13;;;;;;;28.45;36.61;99770.63;4991866;28;20081;-53
2023/07/26 10:42:22;;;;;;;4.13;1.70;;;;;;;28.32;35.97;99769.94;4985268;28;20141;-49
2023/07/26 10:44:49;;;;;;;4.05;2.13;;;;;;;28.33;36.21;99771.63;4985888;28;20042;-49
2023/07/26 10:47:16;;;;;;;4.78;2.92;;;;;;;28.34;37.64;99773.31;4987001;28;20057;-54
2023/07/26 10:49:46;;;;;;;3.88;2.47;;;;;;;28.44;37.29;99776.91;4985233;28;20133;-50
2023/07/26 10:52:13;;;;;;;5.43;2.03;;;;;;;28.53;37.05;99777.13;4982649;28;20121;-53
2023/07/26 11:02:38;;;;;;;4.85;2.25;;;;;;;28.62;35.91;99771.03;5025325;28;20394;-50
2023/07/26 11:05:10;;;;;;;3.20;1.33;;;;;;;28.60;35.32;99778.28;5017881;28;20184;-51
2023/07/26 11:10:31;;;;;;;4.35;1.83;;;;;;;28.42;35.06;99773.53;5041218;28;20406;-52
2023/07/26 11:15:43;;;;;;;4.18;2.85;;;;;;;28.33;36.82;99771.63;5091782;27;20375;-53
2023/07/26 11:18:30;;;;;;;6.18;3.90;;;;;;;28.29;36.40;99780.81;5037125;28;20457;-50
2023/07/26 11:20:57;;;;;;;4.43;3.45;;;;;;;28.28;36.87;99773.81;5034424;28;20055;-53
2023/07/26 11:23:26;;;;;;;5.57;3.38;;;;;;;28.31;36.76;99778.91;5039462;28;20141;-50
2023/07/26 11:25:56;;;;;;;5.53;3.47;;;;;;;28.40;35.96;99767.47;5035512;28;21216;-52
2023/07/26 11:28:25;;;;;;;4.78;3.67;;;;;;;28.38;37.36;99769.44;5034702;28;20697;-52
2023/07/26 11:30:54;;;;;;;3.72;2.78;;;;;;;28.39;36.85;99776.44;5034658;28;20457;-51
2023/07/26 11:36:08;;;;;;;3.70;1.80;;;;;;;28.36;36.20;99760.72;5085375;27;20411;-50
2023/07/26 11:38:35;;;;;;;4.13;1.75;;;;;;;28.33;36.46;99745.00;5035732;28;20045;-50
2023/07/26 11:41:03;;;;;;;4.53;1.98;;;;;;;28.39;37.05;99749.81;5026008;28;20056;-49
2023/07/26 11:43:30;;;;;;;7.75;2.17;;;;;;;28.40;36.16;99740.84;5031105;28;20973;-51
2023/07/26 11:45:57;;;;;;;3.70;1.92;;;;;;;28.32;37.20;99743.31;5032325;28;20064;-48
2023/07/26 11:48:29;;;;;;;3.08;1.77;;;;;;;28.27;36.63;99751.69;5030312;28;20809;-49
2023/07/26 11:51:03;;;;;;;;;;;;;;;28.17;37.13;99738.22;5031553;28;20062;-54
2023/07/26 11:53:33;;;;;;;5.90;1.88;;;;;;;28.33;37.03;99739.66;5029189;28;20031;-50
2023/07/26 11:56:10;;;;;;;4.40;1.92;;;;;;;28.32;36.05;99737.97;5029926;28;20068;-50
2023/07/26 11:58:38;;;;;;;4.55;2.05;;;;;;;28.26;37.12;99730.47;5032796;28;20045;-49
2023/07/26 12:01:05;;;;;;;3.88;1.77;;;;;;;28.16;36.10;99733.06;5029099;28;20049;-49